Time;durP1;ratioP1;P1;durP2;ratioP2;P2;SDS_P1;SDS_P2;PMS_P1;PMS_P2;Temp;Humidity;BMP_temperature;BMP_pressure;BME280_temperature;BME280_humidity;BME280_pressure;Samples;Min_cycle;Max_cycle;Signal;HPM_P1;HPM_P2
2022/05/30 00:00:39;;;;;;;;;;;;;;;8.37;100.00;100443.25;5073237;28;19932;-79
2022/05/30 00:03:13;;;;;;;;;;;;;;;8.44;100.00;100437.56;5071282;28;19929;-81
2022/05/30 00:05:47;;;;;;;;;;;;;;;8.40;100.00;100442.72;5073789;28;19931;-83
2022/05/30 00:08:20;;;;;;;;;;;;;;;8.43;100.00;100430.50;5082611;28;19929;-82
2022/05/30 00:10:53;;;;;;;;;;;;;;;8.39;100.00;100440.28;5069806;28;19928;-80
2022/05/30 00:13:26;;;;;;;;;;;;;;;8.40;100.00;100431.06;5071882;28;19928;-82
2022/05/30 00:16:03;;;;;;;;;;;;;;;8.34;100.00;100432.94;5072908;28;19924;-82
2022/05/30 00:18:32;;;;;;;;;;;;;;;8.39;100.00;100434.84;5070872;28;19932;-81
2022/05/30 00:21:05;;;;;;;;;;;;;;;8.40;100.00;100426.44;5089781;28;19931;-81
2022/05/30 00:23:33;;;;;;;;;;;;;;;8.32;100.00;100432.41;5079573;28;19935;-80
2022/05/30 00:26:07;;;;;;;;;;;;;;;8.33;100.00;100434.03;5073829;28;19929;-81
2022/05/30 00:28:40;;;;;;;;;;;;;;;8.27;100.00;100435.09;5064635;28;19935;-80
2022/05/30 00:31:14;;;;;;;;;;;;;;;8.24;100.00;100432.94;5073046;28;19931;-80
2022/05/30 00:33:48;;;;;;;;;;;;;;;8.09;100.00;100436.44;5069222;28;20436;-80
2022/05/30 00:36:21;;;;;;;;;;;;;;;8.17;100.00;100431.31;5069784;28;20388;-80
2022/05/30 00:38:49;;;;;;;;;;;;;;;8.09;100.00;100436.44;5074185;28;19924;-81
2022/05/30 00:41:23;;;;;;;;;;;;;;;8.07;100.00;100441.34;5084260;28;19928;-80
2022/05/30 00:43:56;;;;;;;;;;;;;;;8.05;100.00;100433.47;5069838;28;19933;-80
2022/05/30 00:46:29;;;;;;;;;;;;;;;7.98;100.00;100438.31;5068626;28;19948;-80
2022/05/30 00:49:01;;;;;;;;;;;;;;;7.90;100.00;100436.97;5072940;28;19929;-81
2022/05/30 00:51:30;;;;;;;;;;;;;;;7.97;100.00;100442.94;5092689;28;19939;-80
2022/05/30 00:54:05;;;;;;;;;;;;;;;7.96;100.00;100444.00;5058682;28;19932;-81
2022/05/30 00:56:35;;;;;;;;;;;;;;;7.93;100.00;100449.97;5073552;28;19928;-81
2022/05/30 00:59:08;;;;;;;;;;;;;;;7.91;100.00;100440.47;5079634;28;19931;-82
2022/05/30 01:01:41;;;;;;;;;;;;;;;7.86;100.00;100440.47;5068130;28;19935;-82
2022/05/30 01:07:04;;;;;;;;;;;;;;;7.89;100.00;100439.94;5065462;28;19924;-84
2022/05/30 01:09:40;;;;;;;;;;;;;;;7.76;100.00;100442.06;5067814;28;19925;-84
2022/05/30 01:12:10;;;;;;;;;;;;;;;7.81;100.00;100441.28;5069342;28;19932;-82
2022/05/30 01:14:44;;;;;;;;;;;;;;;7.87;100.00;100440.22;5074232;28;19928;-85
2022/05/30 01:17:17;;;;;;;;;;;;;;;7.95;100.00;100436.16;5073849;28;19925;-86
2022/05/30 01:19:55;;;;;;;;;;;;;;;7.80;100.00;100436.91;5076007;28;19935;-85
2022/05/30 01:22:30;;;;;;;;;;;;;;;7.77;100.00;100445.59;5071031;28;19925;-85
2022/05/30 01:25:03;;;;;;;;;;;;;;;7.74;100.00;100446.13;5076842;28;19931;-82
2022/05/30 01:28:04;;;;;;;;;;;;;;;7.76;100.00;100446.66;5075848;28;19939;-83
2022/05/30 01:30:38;;;;;;;;;;;;;;;7.85;100.00;100445.06;5070818;28;20408;-82
2022/05/30 01:33:13;;;;;;;;;;;;;;;7.79;100.00;100441.53;5066890;28;20415;-81
2022/05/30 01:35:46;;;;;;;;;;;;;;;7.77;100.00;100446.41;5071042;28;19925;-82
2022/05/30 01:38:16;;;;;;;;;;;;;;;7.76;100.00;100439.38;5080236;28;19928;-81
2022/05/30 01:40:53;;;;;;;;;;;;;;;7.62;100.00;100440.94;5070380;28;19939;-81
2022/05/30 01:43:27;;;;;;;;;;;;;;;7.71;100.00;100441.25;5076607;28;20420;-82
2022/05/30 01:46:07;;;;;;;;;;;;;;;7.58;100.00;100437.97;5079074;28;19935;-81
2022/05/30 01:48:47;;;;;;;;;;;;;;;7.65;100.00;100433.09;5064965;28;19928;-82
2022/05/30 01:51:15;;;;;;;;;;;;;;;7.61;100.00;100432.00;5079414;28;19928;-82
2022/05/30 01:53:51;;;;;;;;;;;;;;;7.58;100.00;100429.84;5070273;28;19929;-81
2022/05/30 01:56:24;;;;;;;;;;;;;;;7.69;100.00;100436.06;5075552;28;19924;-81
2022/05/30 01:59:00;;;;;;;;;;;;;;;7.74;100.00;100429.88;5065245;28;19928;-81
2022/05/30 02:01:42;;;;;;;;;;;;;;;7.78;100.00;100434.50;5078688;28;20285;-82
2022/05/30 02:04:10;;;;;;;;;;;;;;;7.65;100.00;100438.53;5071637;28;19932;-82
2022/05/30 02:06:43;;;;;;;;;;;;;;;7.72;100.00;100432.03;5073395;28;19939;-82
2022/05/30 02:09:13;;;;;;;;;;;;;;;7.76;100.00;100436.66;5068437;28;19932;-82
2022/05/30 02:11:46;;;;;;;;;;;;;;;7.78;100.00;100439.09;5070853;28;19936;-82
2022/05/30 02:14:34;;;;;;;;;;;;;;;7.75;100.00;100442.34;5067949;28;19936;-82
2022/05/30 02:17:04;;;;;;;;;;;;;;;7.78;100.00;100436.38;5069711;28;19935;-83
2022/05/30 02:19:39;;;;;;;;;;;;;;;7.65;100.00;100429.56;5060207;28;19944;-83
2022/05/30 02:22:10;;;;;;;;;;;;;;;7.70;100.00;100434.19;5064656;28;19936;-82
2022/05/30 02:24:39;;;;;;;;;;;;;;;7.70;100.00;100440.41;5090203;28;19935;-84
2022/05/30 02:27:13;;;;;;;;;;;;;;;7.72;100.00;100440.97;5073495;28;19933;-82
2022/05/30 02:29:47;;;;;;;;;;;;;;;7.73;100.00;100437.16;5066924;28;19928;-82
2022/05/30 02:32:23;;;;;;;;;;;;;;;7.74;100.00;100444.22;5080512;28;19942;-82
2022/05/30 02:37:43;;;;;;;;;;;;;;;7.59;100.00;100441.47;5079170;28;19928;-83
2022/05/30 02:40:34;;;;;;;;;;;;;;;7.65;100.00;100443.94;5068859;28;19932;-83
2022/05/30 02:43:25;;;;;;;;;;;;;;;7.55;100.00;100446.59;5071078;28;20303;-82
2022/05/30 02:45:58;;;;;;;;;;;;;;;7.56;100.00;100445.53;5071743;28;19963;-83
2022/05/30 02:48:28;;;;;;;;;;;;;;;7.61;100.00;100445.56;5078724;28;19935;-82
2022/05/30 02:51:01;;;;;;;;;;;;;;;7.63;100.00;100442.56;5062604;28;19928;-82
2022/05/30 02:53:29;;;;;;;;;;;;;;;7.65;100.00;100445.81;5077785;28;20404;-81
2022/05/30 02:56:17;;;;;;;;;;;;;;;7.63;100.00;100443.38;5078363;28;19928;-82
2022/05/30 02:58:50;;;;;;;;;;;;;;;7.60;100.00;100443.09;5071834;28;19928;-84
2022/05/30 03:01:23;;;;;;;;;;;;;;;7.63;100.00;100440.66;5083783;28;19932;-83
2022/05/30 03:03:53;;;;;;;;;;;;;;;7.62;100.00;100446.34;5067475;28;19929;-83
2022/05/30 03:06:21;;;;;;;;;;;;;;;7.59;100.00;100450.41;5073076;28;19931;-83
2022/05/30 03:08:56;;;;;;;;;;;;;;;7.59;100.00;100449.59;5069033;28;19935;-82
2022/05/30 03:11:59;;;;;;;;;;;;;;;7.49;100.00;100443.06;5045289;28;19929;-84
2022/05/30 03:14:27;;;;;;;;;;;;;;;7.55;100.00;100456.63;5070018;28;19928;-82
2022/05/30 03:17:00;;;;;;;;;;;;;;;7.42;100.00;100452.53;5076356;28;19936;-81
2022/05/30 03:19:37;;;;;;;;;;;;;;;7.45;100.00;100450.09;5067171;28;20359;-83
2022/05/30 03:22:05;;;;;;;;;;;;;;;7.43;100.00;100452.25;5085898;28;19935;-83
2022/05/30 03:24:56;;;;;;;;;;;;;;;7.41;100.00;100450.88;5064047;28;19951;-84
2022/05/30 03:27:29;;;;;;;;;;;;;;;7.55;100.00;100462.84;5084445;28;19932;-83
2022/05/30 03:29:57;;;;;;;;;;;;;;;7.51;100.00;100459.03;5070954;28;19928;-84
2022/05/30 03:32:30;;;;;;;;;;;;;;;7.57;100.00;100460.69;5085635;28;19936;-84
2022/05/30 03:35:05;;;;;;;;;;;;;;;7.51;100.00;100459.03;5071664;28;19931;-82
2022/05/30 03:37:43;;;;;;;;;;;;;;;7.43;100.00;100456.84;5066156;28;19928;-83
2022/05/30 03:40:41;;;;;;;;;;;;;;;7.58;100.00;100470.47;5069111;28;19924;-84
2022/05/30 03:43:59;;;;;;;;;;;;;;;7.58;100.00;100475.88;5047277;28;20373;-83
2022/05/30 03:46:32;;;;;;;;;;;;;;;7.47;100.00;100469.59;5056135;28;19956;-84
2022/05/30 03:49:02;;;;;;;;;;;;;;;7.51;100.00;100472.56;5069440;28;19935;-83
2022/05/30 03:51:31;;;;;;;;;;;;;;;7.60;100.00;100473.72;5072855;28;19935;-83
2022/05/30 03:54:04;;;;;;;;;;;;;;;7.63;100.00;100470.47;5080893;28;19935;-83
2022/05/30 03:56:37;;;;;;;;;;;;;;;7.51;100.00;100472.56;5072492;28;19924;-84
2022/05/30 03:59:10;;;;;;;;;;;;;;;7.58;100.00;100461.50;5076418;28;20265;-85
2022/05/30 04:01:38;;;;;;;;;;;;;;;7.70;100.00;100469.41;5076022;28;19931;-83
2022/05/30 04:04:12;;;;;;;;;;;;;;;7.72;100.00;100472.66;5076631;28;19932;-82
2022/05/30 04:06:47;;;;;;;;;;;;;;;7.61;100.00;100474.50;5063807;28;20396;-84
2022/05/30 04:09:22;;;;;;;;;;;;;;;7.69;100.00;100478.63;5072361;28;19935;-84
2022/05/30 04:12:21;;;;;;;;;;;;;;;7.72;100.00;100478.91;5082002;28;19927;-85
2022/05/30 04:15:09;;;;;;;;;;;;;;;7.80;100.00;100480.28;5071179;28;20404;-84
2022/05/30 04:17:38;;;;;;;;;;;;;;;7.71;100.00;100477.28;5075837;28;19928;-84
2022/05/30 04:20:11;;;;;;;;;;;;;;;7.79;100.00;100478.66;5076580;28;19935;-81
2022/05/30 04:22:46;;;;;;;;;;;;;;;7.71;100.00;100482.69;5057697;28;19924;-82
2022/05/30 04:25:39;;;;;;;;;;;;;;;7.77;100.00;100480.81;5075497;28;20557;-85
2022/05/30 04:28:12;;;;;;;;;;;;;;;7.80;100.00;100482.97;5079665;28;19931;-85
2022/05/30 04:30:53;;;;;;;;;;;;;;;7.88;100.00;100474.34;5065218;28;19938;-83
2022/05/30 04:33:27;;;;;;;;;;;;;;;7.86;100.00;100476.50;5070905;28;19955;-84
2022/05/30 04:36:02;;;;;;;;;;;;;;;7.82;100.00;100480.84;5057426;28;20289;-85
2022/05/30 04:38:38;;;;;;;;;;;;;;;7.86;100.00;100489.22;5073799;28;19928;-83
2022/05/30 04:41:25;;;;;;;;;;;;;;;7.95;100.00;100482.22;5072103;28;19928;-81
2022/05/30 04:44:16;;;;;;;;;;;;;;;7.95;100.00;100485.72;5076275;28;19925;-84
2022/05/30 04:47:04;;;;;;;;;;;;;;;8.10;100.00;100482.25;5083585;28;20386;-83
2022/05/30 04:49:39;;;;;;;;;;;;;;;8.04;100.00;100486.03;5072626;28;19935;-85
2022/05/30 04:52:08;;;;;;;;;;;;;;;8.15;100.00;100490.41;5078752;28;20385;-85
2022/05/30 04:54:43;;;;;;;;;;;;;;;8.09;100.00;100493.34;5069966;28;19929;-84
2022/05/30 04:57:40;;;;;;;;;;;;;;;8.23;100.00;100489.06;5067699;28;19928;-84
2022/05/30 05:00:20;;;;;;;;;;;;;;;8.23;100.00;100490.94;5079201;28;19929;-84
2022/05/30 05:02:54;;;;;;;;;;;;;;;8.33;100.00;100499.91;5056438;28;19935;-84
2022/05/30 05:05:22;;;;;;;;;;;;;;;8.21;100.00;100495.84;5079753;28;19928;-85
2022/05/30 05:08:00;;;;;;;;;;;;;;;8.29;100.00;100490.69;5076869;28;20671;-83
2022/05/30 05:10:48;;;;;;;;;;;;;;;8.31;100.00;100490.41;5073861;28;19929;-85
2022/05/30 05:13:50;;;;;;;;;;;;;;;8.37;100.00;100502.06;5029906;28;20402;-84
2022/05/30 05:16:37;;;;;;;;;;;;;;;8.47;100.00;100497.50;5069465;28;20280;-84
2022/05/30 05:19:06;;;;;;;;;;;;;;;8.40;100.00;100499.66;5069451;28;19925;-85
2022/05/30 05:21:40;;;;;;;;;;;;;;;8.33;100.00;100501.81;5075339;28;19924;-84
2022/05/30 05:24:15;;;;;;;;;;;;;;;8.57;100.00;100496.69;5072635;28;19935;-84
2022/05/30 05:27:10;;;;;;;;;;;;;;;8.58;100.00;100498.34;5077897;28;19924;-81
2022/05/30 05:29:43;;;;;;;;;;;;;;;8.50;100.00;100496.16;5069590;28;20314;-83
2022/05/30 05:32:16;;;;;;;;;;;;;;;8.57;100.00;100498.63;5066966;28;19935;-85
2022/05/30 05:34:44;;;;;;;;;;;;;;;8.65;100.00;100503.50;5066297;28;19928;-84
2022/05/30 05:37:19;;;;;;;;;;;;;;;8.63;100.00;100505.66;5076707;28;19928;-82
2022/05/30 05:40:05;;;;;;;;;;;;;;;8.60;100.00;100509.72;5067311;28;19929;-84
2022/05/30 05:42:40;;;;;;;;;;;;;;;8.63;100.00;100511.91;5067930;28;20293;-84
2022/05/30 05:45:10;;;;;;;;;;;;;;;8.68;100.00;100516.50;5069592;28;20502;-85
2022/05/30 05:47:38;;;;;;;;;;;;;;;8.80;100.00;100517.06;5078961;28;20372;-85
2022/05/30 05:50:11;;;;;;;;;;;;;;;9.02;100.00;100527.63;5080732;28;19924;-85
2022/05/30 05:52:44;;;;;;;;;;;;;;;8.79;100.00;100522.75;5068717;28;20292;-83
2022/05/30 05:55:21;;;;;;;;;;;;;;;8.77;100.00;100527.63;5066468;28;19925;-83
2022/05/30 05:57:56;;;;;;;;;;;;;;;8.84;100.00;100522.75;5065927;28;20633;-83
2022/05/30 06:00:31;;;;;;;;;;;;;;;9.01;100.00;100523.28;5066654;28;19932;-84
2022/05/30 06:03:04;;;;;;;;;;;;;;;9.11;100.00;100527.06;5059396;28;19929;-83
2022/05/30 06:05:57;;;;;;;;;;;;;;;9.24;100.00;100531.94;5066957;28;19932;-83
2022/05/30 06:08:49;;;;;;;;;;;;;;;9.16;100.00;100529.78;5069558;28;19928;-84
2022/05/30 06:11:36;;;;;;;;;;;;;;;9.24;100.00;100529.22;5066195;28;19925;-83
2022/05/30 06:14:10;;;;;;;;;;;;;;;9.22;100.00;100527.88;5045397;28;19929;-83
2022/05/30 06:16:44;;;;;;;;;;;;;;;9.26;100.00;100526.25;5056956;28;19929;-83
2022/05/30 06:19:21;;;;;;;;;;;;;;;9.30;100.00;100527.31;5036419;28;20381;-82
2022/05/30 06:21:54;;;;;;;;;;;;;;;9.39;100.00;100519.41;5037984;28;19933;-83
2022/05/30 06:24:29;;;;;;;;;;;;;;;9.47;100.00;100535.16;5054603;28;21347;-88
2022/05/30 06:27:24;;;;;;;;;;;;;;;9.26;100.00;100534.38;5040259;28;19940;-80
2022/05/30 06:29:58;;;;;;;;;;;;;;;9.39;100.00;100525.69;5038388;28;19933;-82
2022/05/30 06:32:31;;;;;;;;;;;;;;;9.38;100.00;100544.94;5053904;28;20329;-81
2022/05/30 06:35:06;;;;;;;;;;;;;;;9.40;100.00;100534.63;5046921;28;19943;-82
2022/05/30 06:37:36;;;;;;;;;;;;;;;9.45;100.00;100542.78;5058945;28;19929;-84
2022/05/30 06:40:05;;;;;;;;;;;;;;;9.27;100.00;100541.44;5045015;28;19943;-82
2022/05/30 06:42:57;;;;;;;;;;;;;;;9.39;100.00;100541.97;5052241;28;20015;-82
2022/05/30 06:45:32;;;;;;;;;;;;;;;9.40;100.00;100540.88;5044058;28;20313;-83
2022/05/30 06:48:25;;;;;;;;;;;;;;;9.47;100.00;100535.97;5044354;28;19932;-83
2022/05/30 06:51:15;;;;;;;;;;;;;;;9.51;100.00;100539.78;5066355;28;21485;-83
2022/05/30 06:53:49;;;;;;;;;;;;;;;9.75;100.00;100541.03;5043306;28;20415;-82
2022/05/30 06:56:24;;;;;;;;;;;;;;;9.66;100.00;100538.88;5041473;28;20494;-83
2022/05/30 06:58:58;;;;;;;;;;;;;;;9.78;100.00;100535.88;5036381;28;21295;-83
2022/05/30 07:01:29;;;;;;;;;;;;;;;9.78;100.00;100535.06;5047763;28;19940;-83
2022/05/30 07:04:21;;;;;;;;;;;;;;;9.92;100.00;100541.50;5040656;28;19932;-82
2022/05/30 07:07:12;;;;;;;;;;;;;;;10.15;100.00;100541.94;5047102;28;19998;-82
2022/05/30 07:10:04;;;;;;;;;;;;;;;10.23;100.00;100544.06;5042947;28;19933;-82
2022/05/30 07:12:46;;;;;;;;;;;;;;;10.04;100.00;100552.88;5031245;28;20328;-82
2022/05/30 07:15:19;;;;;;;;;;;;;;;10.31;100.00;100543.47;5037877;28;19933;-82
2022/05/30 07:17:54;;;;;;;;;;;;;;;10.65;100.00;100547.38;5036720;28;19940;-83
2022/05/30 07:20:22;;;;;;;;;;;;;;;10.57;100.00;100545.25;5059395;28;19932;-83
2022/05/30 07:23:17;;;;;;;;;;;;;;;10.30;100.00;100550.03;5026355;28;19932;-81
2022/05/30 07:26:26;;;;;;;;;;;;;;;10.19;100.00;100551.16;5036361;28;19933;-84
2022/05/30 07:29:13;;;;;;;;;;;;;;;10.22;100.00;100550.63;5047664;28;19933;-82
2022/05/30 07:32:05;;;;;;;;;;;;;;;10.14;100.00;100545.75;5036525;28;19933;-85
2022/05/30 07:34:58;;;;;;;;;;;;;;;10.10;100.00;100547.41;5039340;28;19932;-84
2022/05/30 07:37:31;;;;;;;;;;;;;;;10.03;100.00;100550.44;5037811;28;19936;-82
2022/05/30 07:40:23;;;;;;;;;;;;;;;9.97;100.00;100543.38;5039986;28;19932;-86
2022/05/30 07:43:08;;;;;;;;;;;;;;;10.04;100.00;100552.06;5055597;28;19933;-82
2022/05/30 07:45:36;;;;;;;;;;;;;;;10.16;100.00;100555.28;5041763;28;19932;-84
2022/05/30 07:48:12;;;;;;;;;;;;;;;10.26;100.00;100556.28;5036494;28;19933;-84
2022/05/30 07:51:06;;;;;;;;;;;;;;;10.44;100.00;100552.13;5044138;28;19932;-84
2022/05/30 07:53:54;;;;;;;;;;;;;;;10.53;100.00;100558.59;5035204;28;19932;-83
2022/05/30 07:56:41;;;;;;;;;;;;;;;10.68;100.00;100549.53;5037604;28;19925;-84
2022/05/30 07:59:09;;;;;;;;;;;;;;;10.96;100.00;100555.28;5039134;28;19967;-82
2022/05/30 08:01:37;;;;;;;;;;;;;;;11.03;100.00;100553.88;5050296;28;19933;-85
2022/05/30 08:04:15;;;;;;;;;;;;;;;10.99;100.00;100561.00;5051979;28;19944;-82
2022/05/30 08:07:09;;;;;;;;;;;;;;;10.85;100.00;100560.84;5039789;28;20038;-84
2022/05/30 08:10:09;;;;;;;;;;;;;;;10.69;100.00;100562.06;5046803;28;20179;-81
2022/05/30 08:12:42;;;;;;;;;;;;;;;10.52;100.00;100562.41;5040859;28;19940;-85
2022/05/30 08:15:25;;;;;;;;;;;;;;;10.67;100.00;100567.75;5054412;28;20264;-86
2022/05/30 08:18:14;;;;;;;;;;;;;;;10.39;100.00;100563.88;5032604;28;19932;-83
2022/05/30 08:20:43;;;;;;;;;;;;;;;10.33;100.00;100568.50;5036403;28;20384;-84
2022/05/30 08:23:18;;;;;;;;;;;;;;;10.28;100.00;100568.53;5039991;28;19940;-82
2022/05/30 08:25:48;;;;;;;;;;;;;;;10.47;100.00;100566.00;5060960;28;19940;-85
2022/05/30 08:28:23;;;;;;;;;;;;;;;10.70;100.00;100566.38;5056354;28;20315;-82
2022/05/30 08:30:52;;;;;;;;;;;;;;;10.84;100.00;100580.16;5056430;28;19932;-83
2022/05/30 08:34:03;;;;;;;;;;;;;;;10.91;100.00;100563.50;5039083;28;19940;-82
2022/05/30 08:36:41;;;;;;;;;;;;;;;11.18;100.00;100563.81;5036348;28;19932;-84
2022/05/30 08:41:57;;;;;;;;;;;;;;;11.64;100.00;100564.44;5036577;28;19967;-83
2022/05/30 08:44:49;;;;;;;;;;;;;;;11.37;100.00;100565.81;5041472;28;19936;-82
2022/05/30 08:47:51;;;;;;;;;;;;;;;11.41;100.00;100572.31;5055263;28;19928;-82
2022/05/30 08:50:30;;;;;;;;;;;;;;;11.43;100.00;100575.56;5047045;28;19940;-82
2022/05/30 08:53:04;;;;;;;;;;;;;;;11.62;100.00;100575.63;5053674;28;19932;-84
2022/05/30 08:55:43;;;;;;;;;;;;;;;11.76;100.00;100577.69;5050821;28;20414;-86
2022/05/30 08:58:41;;;;;;;;;;;;;;;12.14;100.00;100572.31;5055772;28;19932;-84
2022/05/30 09:01:18;;;;;;;;;;;;;;;12.30;100.00;100578.38;5032061;28;19933;-86
2022/05/30 09:04:24;;;;;;;;;;;;;;;12.05;100.00;100578.41;5042303;28;19928;-84
2022/05/30 09:06:59;;;;;;;;;;;;;;;11.66;100.00;100578.59;5037140;28;19936;-86
2022/05/30 09:09:39;;;;;;;;;;;;;;;11.48;100.00;100588.34;5044502;28;20597;-84
2022/05/30 09:12:16;;;;;;;;;;;;;;;11.34;100.00;100586.28;5054545;28;19932;-83
2022/05/30 09:15:16;;;;;;;;;;;;;;;11.39;100.00;100583.50;5031298;28;19937;-83
2022/05/30 09:17:53;;;;;;;;;;;;;;;11.46;100.00;100588.63;5041104;28;20886;-84
2022/05/30 09:20:26;;;;;;;;;;;;;;;11.54;100.00;100582.50;5034890;28;20007;-84
2022/05/30 09:23:02;;;;;;;;;;;;;;;11.58;100.00;100589.00;5035171;28;19940;-84
2022/05/30 09:28:44;;;;;;;;;;;;;;;11.34;100.00;100586.28;5040784;28;19932;-86
2022/05/30 09:31:47;;;;;;;;;;;;;;;11.31;100.00;100592.31;5025193;28;20580;-84
2022/05/30 09:34:32;;;;;;;;;;;;;;;11.11;100.00;100590.56;5044407;28;19932;-86
2022/05/30 09:37:24;;;;;;;;;;;;;;;11.11;100.00;100589.75;5045870;28;19933;-86
2022/05/30 09:40:20;;;;;;;;;;;;;;;11.10;100.00;100602.53;5039041;28;19932;-84
2022/05/30 09:43:26;;;;;;;;;;;;;;;11.08;100.00;100596.59;5042553;28;19928;-83
2022/05/30 09:46:15;;;;;;;;;;;;;;;11.06;100.00;100594.16;5043139;28;19933;-83
2022/05/30 09:49:09;;;;;;;;;;;;;;;11.19;100.00;100598.13;5043197;28;19933;-83
2022/05/30 09:51:41;;;;;;;;;;;;;;;11.28;100.00;100594.78;5065851;28;19999;-86
2022/05/30 09:54:30;;;;;;;;;;;;;;;11.56;100.00;100596.69;5039326;28;20688;-84
2022/05/30 09:57:01;;;;;;;;;;;;;;;11.57;100.00;100602.94;5056147;28;19933;-85
2022/05/30 09:59:49;;;;;;;;;;;;;;;11.60;100.00;100593.38;5060895;28;19933;-83
2022/05/30 10:02:24;;;;;;;;;;;;;;;11.47;100.00;100605.78;5066276;28;19954;-86
2022/05/30 10:05:00;;;;;;;;;;;;;;;11.63;100.00;100609.97;5049529;28;19939;-86
2022/05/30 10:07:34;;;;;;;;;;;;;;;11.39;100.00;100612.66;5057767;28;21634;-84
2022/05/30 10:10:20;;;;;;;;;;;;;;;11.29;100.00;100615.47;5046953;28;19933;-84
2022/05/30 10:13:00;;;;;;;;;;;;;;;11.47;100.00;100614.75;5044790;28;19932;-86
2022/05/30 10:15:55;;;;;;;;;;;;;;;11.53;100.00;100608.16;5043841;28;19933;-86
2022/05/30 10:18:33;;;;;;;;;;;;;;;11.60;100.00;100612.44;5042025;28;19932;-86
2022/05/30 10:21:10;;;;;;;;;;;;;;;11.58;100.00;100615.47;5046854;28;19932;-86
2022/05/30 10:30:21;;;;;;;;;;;;;;;11.52;100.00;100622.09;5046301;28;19933;-87
2022/05/30 10:33:16;;;;;;;;;;;;;;;11.34;100.00;100621.69;5043549;28;19933;-84
2022/05/30 10:35:55;;;;;;;;;;;;;;;11.39;100.00;100629.00;5044756;28;19933;-84
2022/05/30 10:38:35;;;;;;;;;;;;;;;11.30;100.00;100636.19;5049017;28;20389;-85
2022/05/30 10:41:10;;;;;;;;;;;;;;;11.42;100.00;100628.44;5043262;28;19924;-83
2022/05/30 10:43:46;;;;;;;;;;;;;;;11.37;100.00;100625.75;5045538;28;20288;-84
2022/05/30 10:46:21;;;;;;;;;;;;;;;11.93;100.00;100626.28;5038707;28;19933;-83
2022/05/30 10:48:53;;;;;;;;;;;;;;;11.97;100.00;100633.63;5063962;28;19932;-84
2022/05/30 10:51:30;;;;;;;;;;;;;;;12.12;100.00;100637.28;5040851;28;19939;-85
2022/05/30 10:54:07;;;;;;;;;;;;;;;12.13;100.00;100638.91;5046299;28;19932;-85
2022/05/30 10:56:51;;;;;;;;;;;;;;;12.16;100.00;100639.13;5066962;28;19933;-84
2022/05/30 10:59:27;;;;;;;;;;;;;;;12.23;100.00;100649.69;5058744;28;19933;-84
2022/05/30 11:01:57;;;;;;;;;;;;;;;12.42;100.00;100636.88;5039947;28;20522;-85
2022/05/30 11:04:42;;;;;;;;;;;;;;;12.26;100.00;100640.91;5044136;28;19932;-85
2022/05/30 11:07:27;;;;;;;;;;;;;;;12.19;100.00;100644.03;5042903;28;19932;-84
2022/05/30 11:10:00;;;;;;;;;;;;;;;12.11;100.00;100638.38;5042236;28;21194;-83
2022/05/30 11:12:31;;;;;;;;;;;;;;;12.00;100.00;100643.97;5052804;28;20483;-86
2022/05/30 11:15:03;;;;;;;;;;;;;;;11.81;100.00;100657.50;5061296;28;19933;-85
2022/05/30 11:17:58;;;;;;;;;;;;;;;11.76;100.00;100654.81;5048407;28;19932;-86
2022/05/30 11:20:30;;;;;;;;;;;;;;;12.06;100.00;100661.88;5040278;28;20575;-87
2022/05/30 11:23:08;;;;;;;;;;;;;;;11.70;100.00;100662.22;5038181;28;19940;-88
2022/05/30 11:25:52;;;;;;;;;;;;;;;11.62;100.00;100654.69;5041809;28;19929;-86
2022/05/30 11:28:25;;;;;;;;;;;;;;;12.02;100.00;100660.84;5060891;28;19929;-85
2022/05/30 11:31:02;;;;;;;;;;;;;;;11.61;100.00;100663.16;5044067;28;19933;-85
2022/05/30 11:33:44;;;;;;;;;;;;;;;11.57;100.00;100671.06;5041960;28;19933;-87
2022/05/30 11:36:25;;;;;;;;;;;;;;;11.39;100.00;100665.25;5036725;28;19932;-87
2022/05/30 11:39:01;;;;;;;;;;;;;;;11.51;100.00;100669.50;5043883;28;19979;-84
2022/05/30 11:41:43;;;;;;;;;;;;;;;11.29;100.00;100668.03;5040469;28;19932;-85
2022/05/30 11:44:24;;;;;;;;;;;;;;;11.05;100.00;100667.97;5045209;28;19932;-87
2022/05/30 11:47:03;;;;;;;;;;;;;;;11.10;100.00;100670.63;5043866;28;21340;-84
2022/05/30 11:49:38;;;;;;;;;;;;;;;10.98;100.00;100673.72;5061920;28;20235;-86
2022/05/30 11:52:12;;;;;;;;;;;;;;;11.48;100.00;100668.16;5054287;28;19931;-87
2022/05/30 11:54:49;;;;;;;;;;;;;;;11.48;100.00;100664.63;5060140;28;19944;-83
2022/05/30 11:57:26;;;;;;;;;;;;;;;11.53;100.00;100661.84;5057609;28;19929;-85
2022/05/30 12:00:01;;;;;;;;;;;;;;;11.35;100.00;100664.19;5040271;28;20303;-84
2022/05/30 12:02:56;;;;;;;;;;;;;;;11.37;100.00;100669.34;5047911;28;19933;-86
2022/05/30 12:05:48;;;;;;;;;;;;;;;11.58;100.00;100664.53;5038012;28;19932;-85
2022/05/30 12:08:29;;;;;;;;;;;;;;;11.69;100.00;100659.78;5039446;28;19940;-88
2022/05/30 12:11:10;;;;;;;;;;;;;;;11.67;100.00;100668.28;5039473;28;20755;-89
2022/05/30 12:13:46;;;;;;;;;;;;;;;11.48;100.00;100667.34;5044799;28;19932;-85
2022/05/30 12:16:17;;;;;;;;;;;;;;;11.81;100.00;100678.50;5039709;28;20288;-87
2022/05/30 12:24:42;;;;;;;;;;;;;;;11.86;100.00;100670.25;5042210;28;19933;-84
2022/05/30 12:27:30;;;;;;;;;;;;;;;11.72;100.00;100673.69;5042433;28;19933;-85
2022/05/30 12:30:06;;;;;;;;;;;;;;;11.58;100.00;100672.72;5053596;28;19933;-84
2022/05/30 12:32:40;;;;;;;;;;;;;;;11.66;100.00;100666.63;5035703;28;21230;-85
2022/05/30 12:35:21;;;;;;;;;;;;;;;11.69;100.00;100673.44;5037470;28;20541;-86
2022/05/30 12:37:51;;;;;;;;;;;;;;;11.47;100.00;100684.81;5039540;28;19933;-85
2022/05/30 12:40:34;;;;;;;;;;;;;;;11.67;100.00;100681.91;5043885;28;19928;-84
2022/05/30 12:43:03;;;;;;;;;;;;;;;11.64;100.00;100685.19;5037598;28;19929;-82
2022/05/30 12:45:38;;;;;;;;;;;;;;;11.56;100.00;100685.81;5051983;28;19933;-83
2022/05/30 12:48:12;;;;;;;;;;;;;;;11.82;100.00;100678.22;5044145;28;19983;-88
2022/05/30 12:50:57;;;;;;;;;;;;;;;11.80;100.00;100676.88;5042682;28;20407;-86
2022/05/30 12:53:55;;;;;;;;;;;;;;;11.69;100.00;100684.34;5041517;28;19933;-87
2022/05/30 12:56:37;;;;;;;;;;;;;;;11.83;100.00;100685.28;4982590;28;19934;-83
2022/05/30 12:59:09;;;;;;;;;;;;;;;11.99;100.00;100693.34;5046730;28;19944;-85
2022/05/30 13:01:52;;;;;;;;;;;;;;;11.97;100.00;100690.09;5044235;28;19933;-86
2022/05/30 13:04:25;;;;;;;;;;;;;;;11.85;100.00;100685.00;5043004;28;19928;-86
2022/05/30 13:07:10;;;;;;;;;;;;;;;11.68;100.00;100688.97;5041557;28;20593;-84
2022/05/30 13:09:40;;;;;;;;;;;;;;;11.63;100.00;100694.47;5044258;28;20380;-85
2022/05/30 13:12:17;;;;;;;;;;;;;;;11.57;100.00;100696.44;5046938;28;19933;-83
2022/05/30 13:15:03;;;;;;;;;;;;;;;11.66;100.00;100699.34;5057151;28;19932;-82
2022/05/30 13:17:47;;;;;;;;;;;;;;;11.55;100.00;100703.25;5040192;28;19932;-84
2022/05/30 13:20:17;;;;;;;;;;;;;;;11.60;100.00;100700.50;5044880;28;19937;-85
2022/05/30 13:22:52;;;;;;;;;;;;;;;11.90;100.00;100709.47;5059173;28;19944;-86
2022/05/30 13:25:28;;;;;;;;;;;;;;;11.62;100.00;100706.47;5037833;28;19932;-85
2022/05/30 13:28:07;;;;;;;;;;;;;;;11.51;100.00;100710.38;5041516;28;21011;-85
2022/05/30 13:30:35;;;;;;;;;;;;;;;11.53;100.00;100713.63;5060456;28;19944;-86
2022/05/30 13:33:16;;;;;;;;;;;;;;;11.49;100.00;100704.38;5052097;28;19933;-85
2022/05/30 13:35:51;;;;;;;;;;;;;;;11.47;100.00;100714.78;5037346;28;20710;-81
2022/05/30 13:38:22;;;;;;;;;;;;;;;11.38;100.00;100717.31;5036922;28;19933;-83
2022/05/30 13:40:55;;;;;;;;;;;;;;;11.36;100.00;100723.00;5043814;28;19933;-82
2022/05/30 13:43:32;;;;;;;;;;;;;;;11.45;100.00;100723.25;5033821;28;19932;-84
2022/05/30 13:46:07;;;;;;;;;;;;;;;11.46;100.00;100729.50;5041888;28;19942;-81
2022/05/30 13:48:36;;;;;;;;;;;;;;;11.28;100.00;100731.00;5041781;28;19943;-84
2022/05/30 13:51:06;;;;;;;;;;;;;;;11.37;100.00;100724.66;5049491;28;19948;-84
2022/05/30 13:53:37;;;;;;;;;;;;;;;11.48;100.00;100724.59;5041111;28;19932;-85